createdAt,value
2022-12-08T00:01:35.405Z,7.07
2022-12-08T00:04:04.286Z,7.45
2022-12-08T00:06:54.781Z,7.62
2022-12-08T00:09:38.549Z,6.85
2022-12-08T00:12:10.184Z,7.43
2022-12-08T00:14:42.100Z,6.93
2022-12-08T00:17:11.928Z,8.20
2022-12-08T00:19:42.886Z,8.05
2022-12-08T00:22:12.169Z,7.97
2022-12-08T00:24:41.401Z,7.80
2022-12-08T00:27:11.355Z,7.03
2022-12-08T00:29:39.588Z,7.05
2022-12-08T00:32:07.955Z,8.60
2022-12-08T00:34:35.745Z,7.82
2022-12-08T00:37:03.387Z,6.95
2022-12-08T00:39:31.216Z,7.60
2022-12-08T00:42:14.146Z,7.12
2022-12-08T00:44:43.308Z,7.75
2022-12-08T00:47:11.318Z,7.85
2022-12-08T00:49:38.983Z,7.00
2022-12-08T00:52:06.788Z,7.87
2022-12-08T00:54:34.553Z,6.93
2022-12-08T00:57:02.316Z,6.97
2022-12-08T00:59:30.117Z,7.95
2022-12-08T01:01:57.786Z,7.32
2022-12-08T01:04:25.989Z,7.72
2022-12-08T01:06:53.751Z,7.70
2022-12-08T01:09:21.392Z,8.02
2022-12-08T01:11:49.064Z,6.97
2022-12-08T01:14:17.193Z,7.70
2022-12-08T01:16:45.090Z,7.50
2022-12-08T01:19:14.879Z,7.47
2022-12-08T01:21:43.374Z,7.62
2022-12-08T01:24:16.608Z,6.53
2022-12-08T01:26:44.529Z,6.78
2022-12-08T01:29:12.411Z,6.75
2022-12-08T01:31:41.125Z,7.68
2022-12-08T01:34:09.946Z,7.85
2022-12-08T01:36:38.551Z,6.75
2022-12-08T01:39:11.470Z,6.72
2022-12-08T01:41:40.198Z,6.65
2022-12-08T01:44:09.250Z,6.53
2022-12-08T01:46:39.584Z,6.93
2022-12-08T01:49:14.340Z,6.10
2022-12-08T01:52:05.908Z,6.62
2022-12-08T01:54:40.012Z,6.55
2022-12-08T01:57:36.862Z,5.50
2022-12-08T02:00:13.454Z,6.50
2022-12-08T02:03:05.111Z,5.95
2022-12-08T02:05:36.122Z,5.20
2022-12-08T02:08:08.115Z,5.80
2022-12-08T02:10:41.436Z,6.28
2022-12-08T02:13:13.947Z,5.03
2022-12-08T02:15:53.456Z,5.43
2022-12-08T02:18:30.409Z,5.12
2022-12-08T02:21:09.905Z,6.25
2022-12-08T02:24:10.057Z,5.95
2022-12-08T02:27:08.524Z,5.40
2022-12-08T02:30:13.925Z,5.10
2022-12-08T02:32:50.501Z,5.00
2022-12-08T02:35:36.540Z,5.43
2022-12-08T02:38:26.896Z,5.45
2022-12-08T02:41:03.560Z,4.57
2022-12-08T02:43:36.385Z,5.00
2022-12-08T02:46:10.509Z,5.25
2022-12-08T02:48:38.655Z,6.10
2022-12-08T02:51:06.877Z,5.53
2022-12-08T02:53:37.260Z,5.80
2022-12-08T02:56:07.782Z,5.90
2022-12-08T02:59:12.308Z,5.82
2022-12-08T03:01:56.608Z,5.28
2022-12-08T03:04:27.254Z,5.95
2022-12-08T03:07:26.860Z,6.87
2022-12-08T03:10:11.208Z,6.15
2022-12-08T03:12:50.883Z,6.25
2022-12-08T03:15:21.691Z,6.15
2022-12-08T03:17:56.218Z,6.57
2022-12-08T03:20:26.774Z,6.45
2022-12-08T03:22:58.868Z,6.45
2022-12-08T03:25:33.827Z,7.20
2022-12-08T03:28:01.675Z,6.30
2022-12-08T03:30:32.323Z,7.20
2022-12-08T03:33:20.410Z,7.10
2022-12-08T03:35:48.655Z,6.75
2022-12-08T03:38:18.262Z,7.50
2022-12-08T03:41:06.618Z,6.32
2022-12-08T03:43:34.305Z,6.78
2022-12-08T03:46:01.943Z,6.87
2022-12-08T03:48:29.617Z,6.50
2022-12-08T03:50:57.384Z,8.02
2022-12-08T03:53:25.041Z,6.40
2022-12-08T03:55:54.577Z,7.37
2022-12-08T03:58:22.238Z,7.22
2022-12-08T04:00:49.900Z,7.00
2022-12-08T04:03:17.579Z,6.50
2022-12-08T04:05:45.270Z,7.28
2022-12-08T04:08:13.042Z,6.20
2022-12-08T04:10:40.735Z,6.70
2022-12-08T04:13:08.401Z,6.75
2022-12-08T04:15:36.023Z,7.18
2022-12-08T04:18:03.695Z,7.28
2022-12-08T04:20:31.343Z,7.85
2022-12-08T04:22:58.961Z,7.07
2022-12-08T04:25:26.842Z,7.15
2022-12-08T04:27:54.515Z,6.18
2022-12-08T04:30:22.208Z,5.95
2022-12-08T04:32:49.864Z,6.05
2022-12-08T04:35:17.791Z,6.25
2022-12-08T04:37:45.623Z,5.47
2022-12-08T04:40:13.871Z,5.32
2022-12-08T04:42:41.598Z,4.78
2022-12-08T04:45:09.588Z,5.20
2022-12-08T04:47:37.228Z,5.05
2022-12-08T04:50:06.895Z,4.05
2022-12-08T04:52:34.765Z,4.00
2022-12-08T04:55:02.579Z,4.25
2022-12-08T04:57:30.251Z,4.07
2022-12-08T04:59:57.900Z,4.20
2022-12-08T05:02:25.789Z,4.40
2022-12-08T05:04:53.472Z,4.20
2022-12-08T05:07:21.344Z,4.72
2022-12-08T05:09:48.974Z,5.05
2022-12-08T05:12:16.636Z,4.32
2022-12-08T05:14:44.302Z,4.25
2022-12-08T05:17:12.015Z,4.47
2022-12-08T05:19:39.703Z,4.57
2022-12-08T05:22:07.461Z,4.70
2022-12-08T05:24:35.193Z,4.35
2022-12-08T05:27:02.869Z,4.00
2022-12-08T05:29:31.030Z,3.92
2022-12-08T05:31:58.797Z,4.00
2022-12-08T05:34:26.521Z,4.10
2022-12-08T05:36:54.197Z,5.00
2022-12-08T05:39:21.930Z,4.62
2022-12-08T05:41:49.645Z,4.87
2022-12-08T05:44:17.301Z,4.85
2022-12-08T05:46:45.025Z,4.22
2022-12-08T05:49:12.759Z,4.75
2022-12-08T05:51:40.544Z,5.03
2022-12-08T05:54:08.173Z,4.22
2022-12-08T05:56:35.958Z,4.62
2022-12-08T05:59:09.296Z,4.50
2022-12-08T06:01:37.457Z,5.05
2022-12-08T06:04:05.885Z,5.45
2022-12-08T06:06:36.162Z,5.07
2022-12-08T06:09:06.073Z,4.85
2022-12-08T06:11:34.729Z,5.50
2022-12-08T06:14:02.969Z,5.62
2022-12-08T06:16:31.172Z,5.00
2022-12-08T06:18:59.160Z,5.12
2022-12-08T06:21:26.880Z,5.25
2022-12-08T06:23:55.691Z,5.35
2022-12-08T06:26:24.054Z,6.15
2022-12-08T06:28:52.048Z,5.20
2022-12-08T06:31:27.439Z,4.60
2022-12-08T06:33:56.258Z,6.22
2022-12-08T06:36:26.745Z,5.22
2022-12-08T06:38:54.455Z,5.95
2022-12-08T06:41:22.126Z,4.60
2022-12-08T06:43:49.791Z,5.10
2022-12-08T06:46:20.094Z,5.18
2022-12-08T06:48:48.618Z,5.57
2022-12-08T06:51:18.680Z,5.15
2022-12-08T06:53:47.343Z,6.03
2022-12-08T06:56:16.977Z,5.72
2022-12-08T06:58:49.001Z,5.50
2022-12-08T07:01:20.076Z,5.75
2022-12-08T07:03:48.833Z,5.37
2022-12-08T07:06:20.445Z,5.87
2022-12-08T07:08:48.173Z,7.30
2022-12-08T07:11:21.154Z,6.57
2022-12-08T07:13:50.079Z,5.82
2022-12-08T07:16:17.850Z,5.82
2022-12-08T07:18:45.528Z,5.93
2022-12-08T07:21:15.995Z,7.22
2022-12-08T07:23:46.732Z,6.22
2022-12-08T07:26:14.554Z,6.05
2022-12-08T07:28:43.335Z,6.87
2022-12-08T07:31:19.433Z,6.90
2022-12-08T07:33:47.394Z,6.40
2022-12-08T07:36:15.261Z,7.97
2022-12-08T07:38:44.293Z,7.25
2022-12-08T07:41:16.302Z,8.00
2022-12-08T07:43:44.446Z,6.37
2022-12-08T07:46:16.861Z,7.97
2022-12-08T07:48:44.617Z,8.05
2022-12-08T07:51:14.820Z,8.75
2022-12-08T07:53:48.422Z,8.50
2022-12-08T07:56:19.866Z,10.40
2022-12-08T07:58:47.927Z,8.82
2022-12-08T08:01:24.009Z,8.45
2022-12-08T08:03:52.150Z,8.40
2022-12-08T08:06:19.825Z,7.62
2022-12-08T08:08:47.677Z,7.72
2022-12-08T08:11:20.828Z,8.57
2022-12-08T08:13:49.567Z,8.98
2022-12-08T08:16:17.618Z,8.25
2022-12-08T08:18:48.723Z,7.53
2022-12-08T08:21:43.795Z,8.02
2022-12-08T08:24:04.388Z,7.32
2022-12-08T08:26:32.009Z,7.62
2022-12-08T08:28:59.702Z,7.97
2022-12-08T08:31:28.024Z,7.87
2022-12-08T08:33:57.828Z,7.60
2022-12-08T08:36:25.529Z,8.00
2022-12-08T08:38:53.467Z,8.93
2022-12-08T08:41:21.140Z,7.72
2022-12-08T08:43:48.764Z,7.43
2022-12-08T08:46:16.488Z,7.62
2022-12-08T08:48:44.297Z,7.68
2022-12-08T08:51:13.886Z,7.70
2022-12-08T08:53:42.859Z,7.37
2022-12-08T08:56:20.789Z,7.97
2022-12-08T08:58:50.703Z,8.18
2022-12-08T09:01:21.845Z,7.65
2022-12-08T09:03:50.220Z,7.00
2022-12-08T09:06:19.027Z,7.10
2022-12-08T09:08:47.463Z,7.78
2022-12-08T09:11:16.092Z,8.68
2022-12-08T09:13:43.750Z,8.00
2022-12-08T09:16:13.408Z,7.57
2022-12-08T09:18:41.274Z,7.15
2022-12-08T09:21:12.633Z,7.75
2022-12-08T09:23:40.884Z,6.47
2022-12-08T09:26:09.133Z,7.03
2022-12-08T09:28:36.845Z,6.62
2022-12-08T09:31:05.520Z,7.00
2022-12-08T09:33:33.363Z,6.03
2022-12-08T09:36:05.665Z,6.30
2022-12-08T09:38:33.329Z,7.35
2022-12-08T09:41:03.430Z,8.38
2022-12-08T09:43:57.664Z,8.45
2022-12-08T09:46:29.782Z,7.00
2022-12-08T09:49:00.073Z,6.30
2022-12-08T09:51:32.931Z,6.68
2022-12-08T09:54:25.218Z,6.35
2022-12-08T09:56:56.633Z,6.28
2022-12-08T09:59:33.395Z,6.55
2022-12-08T10:02:02.653Z,6.53
2022-12-08T10:04:35.102Z,6.90
2022-12-08T10:07:24.538Z,7.05
2022-12-08T10:10:23.223Z,6.57
2022-12-08T10:12:50.773Z,6.15
2022-12-08T10:15:55.962Z,6.60
2022-12-08T10:18:33.407Z,6.18
2022-12-08T10:21:23.356Z,5.90
2022-12-08T10:23:54.492Z,7.05
2022-12-08T10:26:23.286Z,6.35
2022-12-08T10:28:51.814Z,6.80
2022-12-08T10:31:25.547Z,6.90
2022-12-08T10:34:01.448Z,6.85
2022-12-08T10:36:48.261Z,6.00
2022-12-08T10:39:33.368Z,5.87
2022-12-08T10:42:10.081Z,6.60
2022-12-08T10:44:53.478Z,6.35
2022-12-08T10:47:24.363Z,6.25
2022-12-08T10:50:09.478Z,6.43
2022-12-08T10:52:41.535Z,6.43
2022-12-08T10:55:16.327Z,6.30
2022-12-08T10:57:44.103Z,6.32
2022-12-08T11:00:17.680Z,5.40
2022-12-08T11:03:04.127Z,6.82
2022-12-08T11:05:37.040Z,7.15
2022-12-08T11:08:06.898Z,6.20
2022-12-08T11:10:37.879Z,6.47
2022-12-08T11:13:11.612Z,5.70
2022-12-08T11:15:41.029Z,6.47
2022-12-08T11:18:25.121Z,5.80
2022-12-08T11:21:09.016Z,6.32
2022-12-08T11:23:38.428Z,5.93
2022-12-08T11:26:24.809Z,6.05
2022-12-08T11:28:52.925Z,5.40
2022-12-08T11:31:34.242Z,6.40
2022-12-08T11:34:04.210Z,5.43
2022-12-08T11:36:34.558Z,5.12
2022-12-08T11:39:05.647Z,4.78
2022-12-08T11:41:40.841Z,5.10
2022-12-08T11:44:17.536Z,5.28
2022-12-08T11:46:52.055Z,5.62
2022-12-08T11:49:20.362Z,5.32
2022-12-08T11:51:55.868Z,5.47
2022-12-08T11:54:34.035Z,5.37
2022-12-08T11:57:14.281Z,4.95
2022-12-08T11:59:47.294Z,5.65
2022-12-08T12:02:19.423Z,5.25
2022-12-08T12:05:06.208Z,5.12
2022-12-08T12:08:06.260Z,5.93
2022-12-08T12:11:07.797Z,5.15
2022-12-08T12:13:54.048Z,4.22
2022-12-08T12:16:49.150Z,5.00
2022-12-08T12:19:20.647Z,4.53
2022-12-08T12:21:54.580Z,4.47
2022-12-08T12:24:30.499Z,4.20
2022-12-08T12:27:24.693Z,5.15
2022-12-08T12:30:00.388Z,5.00
2022-12-08T12:32:42.477Z,4.60
2022-12-08T12:35:26.852Z,4.80
2022-12-08T12:37:59.951Z,4.57
2022-12-08T12:40:30.165Z,4.60
2022-12-08T12:42:57.765Z,4.97
2022-12-08T12:45:27.636Z,4.68
2022-12-08T12:47:58.054Z,5.07
2022-12-08T12:50:34.839Z,4.68
2022-12-08T12:53:09.157Z,4.90
2022-12-08T12:55:56.168Z,5.12
2022-12-08T12:58:37.770Z,4.97
2022-12-08T13:01:11.577Z,5.05
2022-12-08T13:04:04.877Z,6.12
2022-12-08T13:06:43.007Z,5.35
2022-12-08T13:09:35.619Z,5.55
2022-12-08T13:12:11.590Z,5.37
2022-12-08T13:14:48.068Z,5.60
2022-12-08T13:17:25.446Z,5.78
2022-12-08T13:19:57.587Z,5.97
2022-12-08T13:23:04.842Z,5.25
2022-12-08T13:26:14.087Z,5.30
2022-12-08T13:29:24.451Z,4.97
2022-12-08T13:32:06.223Z,5.82
2022-12-08T13:34:36.561Z,4.90
2022-12-08T13:37:13.456Z,5.32
2022-12-08T13:39:41.151Z,5.95
2022-12-08T13:42:30.645Z,5.40
2022-12-08T13:45:39.763Z,5.10
2022-12-08T13:48:30.262Z,4.95
2022-12-08T13:57:08.365Z,6.20
2022-12-08T13:59:36.537Z,5.43
2022-12-08T14:02:24.282Z,6.20
2022-12-08T14:07:42.359Z,5.80
2022-12-08T14:10:17.771Z,5.95
2022-12-08T14:12:49.115Z,5.47
2022-12-08T14:15:17.184Z,5.35
2022-12-08T14:17:55.853Z,5.43
2022-12-08T14:20:28.537Z,6.28
2022-12-08T14:22:56.410Z,6.62
2022-12-08T14:25:25.172Z,5.85
2022-12-08T14:28:00.193Z,6.03
2022-12-08T14:30:32.335Z,5.00
2022-12-08T14:33:02.263Z,5.47
2022-12-08T14:35:31.262Z,5.72
2022-12-08T14:38:02.069Z,5.70
2022-12-08T14:40:44.147Z,5.07
2022-12-08T14:43:11.753Z,5.68
2022-12-08T14:45:42.609Z,5.90
2022-12-08T14:48:32.334Z,5.90
2022-12-08T14:51:24.952Z,5.53
2022-12-08T14:54:14.149Z,6.15
2022-12-08T14:56:53.356Z,4.65
2022-12-08T14:59:31.190Z,5.30
2022-12-08T15:02:12.914Z,4.57
2022-12-08T15:04:43.494Z,5.32
2022-12-08T15:07:14.756Z,5.65
2022-12-08T15:09:51.224Z,5.05
2022-12-08T15:12:27.275Z,5.22
2022-12-08T15:14:55.200Z,5.07
2022-12-08T15:17:31.668Z,6.10
2022-12-08T15:20:01.487Z,5.43
2022-12-08T15:22:31.792Z,5.87
2022-12-08T15:24:59.673Z,4.75
2022-12-08T15:27:27.695Z,5.35
2022-12-08T15:29:55.403Z,5.12
2022-12-08T15:32:25.110Z,5.78
2022-12-08T15:34:52.831Z,5.20
2022-12-08T15:37:25.174Z,4.75
2022-12-08T15:39:53.704Z,5.45
2022-12-08T15:42:21.340Z,4.97
2022-12-08T15:44:49.045Z,5.07
2022-12-08T15:47:22.219Z,4.93
2022-12-08T15:49:51.511Z,5.85
2022-12-08T15:52:24.840Z,4.70
2022-12-08T15:54:52.684Z,5.12
2022-12-08T16:00:51.940Z,5.20
2022-12-08T16:09:13.569Z,4.78
2022-12-08T16:12:09.936Z,4.10
2022-12-08T16:17:27.355Z,4.62
2022-12-08T16:19:55.548Z,4.57
2022-12-08T16:25:23.047Z,5.05
2022-12-08T16:28:44.818Z,4.82
2022-12-08T16:30:41.098Z,5.03
2022-12-08T16:33:08.838Z,4.78
2022-12-08T16:35:36.586Z,4.75
2022-12-08T16:38:04.697Z,4.82
2022-12-08T16:40:32.663Z,5.37
2022-12-08T16:43:00.360Z,5.50
2022-12-08T16:45:30.568Z,4.85
2022-12-08T16:48:02.248Z,5.28
2022-12-08T16:50:34.788Z,5.25
2022-12-08T16:53:10.247Z,5.03
2022-12-08T16:55:38.101Z,4.40
2022-12-08T16:58:06.137Z,5.12
2022-12-08T17:00:38.221Z,5.40
2022-12-08T17:03:07.312Z,5.05
2022-12-08T17:05:35.963Z,5.43
2022-12-08T17:08:03.825Z,5.28
2022-12-08T17:10:35.480Z,5.25
2022-12-08T17:13:03.636Z,5.95
2022-12-08T17:15:31.372Z,5.93
2022-12-08T17:17:59.013Z,5.35
2022-12-08T17:20:29.114Z,6.43
2022-12-08T17:22:58.922Z,5.47
2022-12-08T17:25:28.117Z,5.82
2022-12-08T17:27:57.397Z,6.12
2022-12-08T17:30:25.092Z,5.22
2022-12-08T17:32:53.924Z,6.30
2022-12-08T17:35:21.774Z,6.20
2022-12-08T17:37:49.659Z,4.95
2022-12-08T17:40:17.305Z,6.43
2022-12-08T17:42:45.197Z,6.97
2022-12-08T17:45:12.920Z,6.70
2022-12-08T17:47:40.596Z,6.07
2022-12-08T17:50:09.125Z,6.12
2022-12-08T17:52:36.895Z,6.78
2022-12-08T17:55:05.236Z,5.75
2022-12-08T17:57:32.903Z,6.70
2022-12-08T18:00:00.662Z,8.05
2022-12-08T18:02:28.455Z,7.57
2022-12-08T18:04:56.235Z,7.50
2022-12-08T18:07:23.949Z,7.80
2022-12-08T18:09:52.654Z,8.27
2022-12-08T18:12:23.597Z,8.15
2022-12-08T18:14:52.825Z,8.02
2022-12-08T18:17:21.426Z,7.45
2022-12-08T18:19:49.202Z,6.53
2022-12-08T18:22:17.156Z,6.97
2022-12-08T18:24:45.182Z,8.95
2022-12-08T18:27:12.951Z,8.65
2022-12-08T18:29:41.100Z,7.35
2022-12-08T18:32:09.600Z,7.50
2022-12-08T18:34:37.356Z,9.77
2022-12-08T18:37:05.171Z,9.10
2022-12-08T18:39:34.028Z,9.45
2022-12-08T18:42:23.753Z,9.30
2022-12-08T18:45:07.848Z,8.50
2022-12-08T18:47:38.229Z,8.75
2022-12-08T18:50:08.337Z,9.85
2022-12-08T18:52:36.425Z,9.43
2022-12-08T18:55:06.738Z,10.48
2022-12-08T18:57:35.778Z,10.13
2022-12-08T19:00:04.057Z,7.57
2022-12-08T19:02:31.990Z,8.98
2022-12-08T19:04:59.711Z,6.70
2022-12-08T19:07:27.469Z,8.32
2022-12-08T19:09:55.744Z,6.68
2022-12-08T19:12:23.995Z,7.30
2022-12-08T19:14:51.684Z,7.05
2022-12-08T19:17:19.348Z,7.57
2022-12-08T19:19:47.068Z,7.47
2022-12-08T19:22:15.209Z,8.50
2022-12-08T19:24:43.053Z,7.35
2022-12-08T19:27:10.852Z,6.85
2022-12-08T19:29:38.596Z,6.62
2022-12-08T19:32:06.455Z,9.88
2022-12-08T19:34:34.231Z,9.65
2022-12-08T19:37:01.956Z,9.32
2022-12-08T19:39:48.179Z,8.93
2022-12-08T19:42:40.015Z,8.88
2022-12-08T19:45:13.362Z,8.05
2022-12-08T19:47:41.859Z,7.37
2022-12-08T19:50:30.753Z,7.80
2022-12-08T19:52:59.132Z,8.57
2022-12-08T19:55:27.667Z,8.95
2022-12-08T19:57:57.755Z,11.93
2022-12-08T20:00:25.609Z,10.80
2022-12-08T20:02:53.419Z,10.30
2022-12-08T20:05:21.273Z,9.98
2022-12-08T20:07:49.015Z,8.40
2022-12-08T20:10:23.150Z,9.23
2022-12-08T20:12:50.865Z,8.13
2022-12-08T20:15:18.696Z,8.20
2022-12-08T20:17:46.506Z,7.45
2022-12-08T20:20:15.364Z,8.65
2022-12-08T20:22:43.709Z,8.55
2022-12-08T20:25:13.209Z,10.13
2022-12-08T20:27:41.174Z,8.65
2022-12-08T20:30:15.027Z,7.97
2022-12-08T20:32:44.931Z,8.88
2022-12-08T20:35:12.642Z,7.30
2022-12-08T20:37:40.324Z,7.68
2022-12-08T20:40:08.724Z,8.68
2022-12-08T20:42:36.464Z,8.38
2022-12-08T20:45:07.312Z,7.68
2022-12-08T20:47:35.716Z,8.27
2022-12-08T20:50:04.958Z,8.15
2022-12-08T20:52:33.252Z,8.88
2022-12-08T20:55:00.934Z,9.00
2022-12-08T20:57:28.660Z,8.82
2022-12-08T20:59:56.638Z,7.78
2022-12-08T21:02:24.484Z,9.38
2022-12-08T21:04:52.384Z,8.32
2022-12-08T21:07:20.304Z,9.98
2022-12-08T21:09:48.328Z,9.75
2022-12-08T21:12:16.166Z,9.55
2022-12-08T21:14:44.695Z,9.23
2022-12-08T21:17:12.709Z,8.52
2022-12-08T21:19:40.653Z,8.63
2022-12-08T21:22:08.505Z,7.90
2022-12-08T21:24:36.418Z,8.40
2022-12-08T21:27:04.267Z,8.45
2022-12-08T21:29:32.186Z,6.78
2022-12-08T21:32:01.311Z,8.07
2022-12-08T21:34:32.656Z,8.40
2022-12-08T21:37:00.652Z,7.37
2022-12-08T21:39:28.855Z,8.05
2022-12-08T21:42:15.594Z,7.35
2022-12-08T21:44:43.568Z,8.23
2022-12-08T21:47:12.618Z,11.05
2022-12-08T21:49:40.440Z,9.68
2022-12-08T21:52:08.237Z,8.68
2022-12-08T21:54:35.923Z,8.93
2022-12-08T21:57:03.813Z,8.10
2022-12-08T21:59:31.823Z,9.23
2022-12-08T22:01:59.698Z,9.35
2022-12-08T22:04:27.696Z,9.30
2022-12-08T22:06:55.753Z,9.02
2022-12-08T22:09:23.775Z,7.90
2022-12-08T22:11:51.483Z,7.43
2022-12-08T22:14:19.323Z,7.70
2022-12-08T22:16:47.400Z,8.10
2022-12-08T22:19:15.321Z,8.55
2022-12-08T22:21:43.251Z,8.77
2022-12-08T22:24:11.094Z,7.68
2022-12-08T22:26:38.971Z,7.35
2022-12-08T22:29:06.772Z,7.75
2022-12-08T22:31:34.463Z,7.45
2022-12-08T22:34:02.117Z,7.55
2022-12-08T22:36:29.834Z,7.78
2022-12-08T22:38:57.726Z,8.48
2022-12-08T22:41:25.662Z,7.12
2022-12-08T22:43:53.433Z,6.82
2022-12-08T22:46:26.881Z,6.93
2022-12-08T22:48:55.792Z,8.60
2022-12-08T22:51:23.753Z,7.55
2022-12-08T22:53:51.652Z,6.87
2022-12-08T22:56:20.221Z,8.23
2022-12-08T22:58:48.386Z,9.20
2022-12-08T23:01:31.348Z,7.72
2022-12-08T23:04:00.551Z,7.40
2022-12-08T23:06:30.228Z,8.75
2022-12-08T23:08:59.221Z,8.23
2022-12-08T23:11:31.370Z,8.63
2022-12-08T23:14:03.106Z,7.25
2022-12-08T23:16:31.229Z,7.28
2022-12-08T23:19:00.096Z,8.38
2022-12-08T23:21:28.022Z,7.30
2022-12-08T23:23:55.840Z,7.60
2022-12-08T23:26:26.672Z,7.43
2022-12-08T23:28:55.034Z,9.13
2022-12-08T23:31:23.570Z,7.43
2022-12-08T23:33:51.591Z,6.97
2022-12-08T23:36:20.957Z,7.20
2022-12-08T23:38:49.531Z,7.47
2022-12-08T23:41:17.783Z,6.47
2022-12-08T23:43:52.865Z,8.15
2022-12-08T23:46:22.757Z,6.93
2022-12-08T23:48:51.810Z,6.18
2022-12-08T23:51:19.763Z,6.47
2022-12-08T23:53:47.900Z,7.37
2022-12-08T23:56:18.085Z,6.60
2022-12-08T23:58:46.766Z,6.55
